Time;durP1;ratioP1;P1;durP2;ratioP2;P2;SDS_P1;SDS_P2;PMS_P1;PMS_P2;Temp;Humidity;BMP_temperature;BMP_pressure;BME280_temperature;BME280_humidity;BME280_pressure;Samples;Min_cycle;Max_cycle;Signal;HPM_P1;HPM_P2
2023/10/25 00:01:26;;;;;;;12.37;9.17;;;12.90;99.90;;;;;;4993906;28;20233;-57
2023/10/25 00:03:52;;;;;;;9.27;8.37;;;12.80;99.90;;;;;;4995302;28;20422;-57
2023/10/25 00:06:18;;;;;;;10.43;8.93;;;12.70;99.90;;;;;;4999123;28;20581;-57
2023/10/25 00:08:43;;;;;;;12.30;9.47;;;12.60;99.90;;;;;;4995871;28;20192;-57
2023/10/25 00:11:09;;;;;;;11.23;10.07;;;12.60;99.90;;;;;;5017674;28;20732;-59
2023/10/25 00:13:35;;;;;;;10.67;9.57;;;12.60;99.90;;;;;;4995586;28;20202;-57
2023/10/25 00:16:02;;;;;;;14.90;10.90;;;12.70;99.90;;;;;;5017078;28;20216;-56
2023/10/25 00:18:28;;;;;;;14.07;10.43;;;12.70;99.90;;;;;;4996818;28;20226;-57
2023/10/25 00:20:54;;;;;;;13.87;11.67;;;12.60;99.90;;;;;;5016904;28;20853;-56
2023/10/25 00:23:20;;;;;;;13.73;11.23;;;12.80;99.90;;;;;;4999473;28;20206;-56
2023/10/25 00:25:49;;;;;;;11.73;10.33;;;13.00;99.90;;;;;;4994497;28;20309;-57
2023/10/25 00:28:14;;;;;;;11.93;10.73;;;13.00;99.90;;;;;;5007070;28;20667;-59
2023/10/25 00:30:40;;;;;;;11.10;9.60;;;13.10;99.90;;;;;;4996766;28;20215;-57
2023/10/25 00:33:05;;;;;;;11.57;9.13;;;13.20;99.90;;;;;;5002365;28;20204;-57
2023/10/25 00:35:31;;;;;;;10.70;9.60;;;13.10;99.90;;;;;;4999717;28;20200;-56
2023/10/25 00:37:57;;;;;;;10.70;9.13;;;13.10;99.90;;;;;;5015420;28;20200;-57
2023/10/25 00:40:23;;;;;;;12.40;9.20;;;12.90;99.90;;;;;;5009450;28;20208;-56
2023/10/25 00:42:49;;;;;;;9.63;8.63;;;12.90;99.90;;;;;;4999134;28;20203;-57
2023/10/25 00:45:14;;;;;;;9.27;7.97;;;12.80;99.90;;;;;;5009351;28;20218;-57
2023/10/25 00:47:41;;;;;;;11.07;8.63;;;12.70;99.90;;;;;;4995280;28;20614;-56
2023/10/25 00:50:09;;;;;;;9.57;8.63;;;12.60;99.90;;;;;;4998065;28;20203;-56
2023/10/25 00:52:36;;;;;;;8.37;7.60;;;12.70;99.90;;;;;;4996294;28;20200;-56
2023/10/25 00:55:02;;;;;;;7.30;6.60;;;12.80;99.90;;;;;;5020290;28;20202;-57
2023/10/25 00:57:29;;;;;;;8.20;7.43;;;12.80;99.90;;;;;;4996449;28;20297;-57
2023/10/25 00:59:54;;;;;;;8.07;7.37;;;12.70;99.90;;;;;;5004001;28;20211;-57
2023/10/25 01:02:20;;;;;;;8.27;7.43;;;12.80;99.90;;;;;;5015236;28;20396;-60
2023/10/25 01:04:46;;;;;;;8.57;7.03;;;12.80;99.90;;;;;;4996636;28;20619;-57
2023/10/25 01:07:12;;;;;;;7.93;7.13;;;12.90;99.90;;;;;;5001992;28;20219;-56
2023/10/25 01:09:37;;;;;;;6.97;6.37;;;12.90;99.90;;;;;;5005543;28;20499;-64
2023/10/25 01:12:04;;;;;;;7.53;6.73;;;12.80;99.90;;;;;;5003429;28;20202;-58
2023/10/25 01:14:33;;;;;;;8.53;6.47;;;12.90;99.90;;;;;;5012613;28;20213;-61
2023/10/25 01:16:58;;;;;;;6.80;6.10;;;13.00;99.90;;;;;;4996643;28;20222;-55
2023/10/25 01:19:24;;;;;;;6.03;5.43;;;13.00;99.90;;;;;;5014716;28;20207;-57
2023/10/25 01:21:50;;;;;;;6.67;5.07;;;12.90;99.90;;;;;;4997550;28;20210;-58
2023/10/25 01:24:15;;;;;;;4.33;4.03;;;12.70;99.90;;;;;;5002584;28;20234;-57
2023/10/25 01:26:41;;;;;;;4.43;3.97;;;12.50;99.90;;;;;;5005233;28;20312;-57
2023/10/25 01:29:07;;;;;;;4.63;4.23;;;12.50;99.90;;;;;;5003176;28;21032;-57
2023/10/25 01:31:32;;;;;;;4.17;3.57;;;12.40;99.90;;;;;;5015939;28;20837;-57
2023/10/25 01:33:58;;;;;;;4.30;4.00;;;12.50;99.90;;;;;;5005892;28;20199;-57
2023/10/25 01:36:23;;;;;;;4.70;4.30;;;12.50;99.90;;;;;;5003481;28;20788;-57
2023/10/25 01:38:49;;;;;;;4.43;4.13;;;12.50;99.90;;;;;;5008264;28;20207;-57
2023/10/25 01:41:16;;;;;;;5.10;4.70;;;12.50;99.90;;;;;;5003106;28;21008;-57
2023/10/25 01:43:42;;;;;;;4.83;4.43;;;12.40;99.90;;;;;;4994305;28;20990;-56
2023/10/25 01:46:08;;;;;;;6.90;5.80;;;12.40;99.90;;;;;;4995241;28;20295;-57
2023/10/25 01:48:35;;;;;;;6.27;5.67;;;12.40;99.90;;;;;;4996446;28;20337;-57
2023/10/25 01:51:01;;;;;;;9.90;6.10;;;12.40;99.90;;;;;;5001742;28;20313;-57
2023/10/25 01:53:28;;;;;;;7.77;7.07;;;12.40;99.90;;;;;;5004006;28;20293;-57
2023/10/25 01:55:53;;;;;;;7.93;7.20;;;12.30;99.90;;;;;;5014578;28;20866;-57
2023/10/25 01:58:19;;;;;;;7.00;6.40;;;12.40;99.90;;;;;;5000394;28;20200;-56
2023/10/25 02:00:44;;;;;;;8.30;7.47;;;12.30;99.90;;;;;;5021235;28;20927;-56
2023/10/25 02:03:10;;;;;;;11.80;10.60;;;12.30;99.90;;;;;;5005754;28;21105;-60
2023/10/25 02:05:35;;;;;;;12.67;11.37;;;12.30;99.90;;;;;;5000323;28;20207;-57
2023/10/25 02:08:01;;;;;;;12.80;11.60;;;12.20;99.90;;;;;;5021509;28;20622;-57
2023/10/25 02:10:26;;;;;;;15.37;12.70;;;12.30;99.90;;;;;;5001844;28;20201;-56
2023/10/25 02:12:52;;;;;;;15.27;13.53;;;12.20;99.90;;;;;;5002784;28;20206;-57
2023/10/25 02:15:17;;;;;;;13.93;11.93;;;12.20;99.90;;;;;;4994009;28;23449;-57
2023/10/25 02:17:43;;;;;;;14.33;12.70;;;12.20;99.90;;;;;;5016050;28;20222;-57
2023/10/25 02:20:08;;;;;;;15.53;14.00;;;12.20;99.90;;;;;;5002273;28;20192;-57
2023/10/25 02:22:34;;;;;;;16.13;14.40;;;12.20;99.90;;;;;;4999047;28;20419;-58
2023/10/25 02:24:59;;;;;;;18.87;15.20;;;12.20;99.90;;;;;;4995222;28;20207;-57
2023/10/25 02:27:25;;;;;;;15.43;13.83;;;12.10;99.90;;;;;;5000683;28;20215;-58
2023/10/25 02:29:51;;;;;;;17.77;15.53;;;12.10;99.90;;;;;;4996299;28;20218;-57
2023/10/25 02:32:16;;;;;;;17.93;15.43;;;12.20;99.90;;;;;;5010464;28;20209;-56
2023/10/25 02:34:41;;;;;;;17.63;15.87;;;12.10;99.90;;;;;;4998134;28;20232;-56
2023/10/25 02:37:07;;;;;;;17.77;15.03;;;12.30;99.90;;;;;;5000684;28;20485;-56
2023/10/25 02:39:32;;;;;;;21.27;16.77;;;12.20;99.90;;;;;;5000255;28;20202;-55
2023/10/25 02:41:58;;;;;;;18.13;16.17;;;12.10;99.90;;;;;;4997996;28;20529;-58
2023/10/25 02:44:23;;;;;;;16.40;14.70;;;12.10;99.90;;;;;;4992737;28;20506;-56
2023/10/25 02:46:49;;;;;;;18.40;14.57;;;12.00;99.90;;;;;;4996782;28;20692;-56
2023/10/25 02:49:14;;;;;;;17.63;15.83;;;12.10;99.90;;;;;;4997712;28;20578;-63
2023/10/25 02:51:40;;;;;;;17.53;15.03;;;12.10;99.90;;;;;;5000368;28;20210;-65
2023/10/25 02:54:05;;;;;;;17.43;15.67;;;12.20;99.90;;;;;;5015592;28;20780;-66
2023/10/25 02:56:31;;;;;;;17.00;15.37;;;12.10;99.90;;;;;;4999064;28;20222;-58
2023/10/25 02:58:56;;;;;;;18.70;16.90;;;12.10;99.90;;;;;;4996614;28;20203;-58
2023/10/25 03:01:23;;;;;;;16.97;15.20;;;12.10;99.90;;;;;;4999716;28;20204;-60
2023/10/25 03:03:49;;;;;;;16.70;14.70;;;12.10;99.90;;;;;;4996355;28;20201;-56
2023/10/25 03:06:14;;;;;;;19.70;16.53;;;12.10;99.90;;;;;;4992422;28;20198;-56
2023/10/25 03:08:40;;;;;;;18.60;16.63;;;12.20;99.90;;;;;;4996927;28;20204;-56
2023/10/25 03:11:05;;;;;;;17.37;15.37;;;12.20;99.90;;;;;;4997522;28;20704;-55
2023/10/25 03:13:31;;;;;;;16.03;14.43;;;12.20;99.90;;;;;;5017796;28;20226;-56
2023/10/25 03:15:57;;;;;;;17.33;15.50;;;12.10;99.90;;;;;;4999073;28;20250;-55
2023/10/25 03:18:23;;;;;;;17.97;14.90;;;12.10;99.90;;;;;;4999968;28;20200;-56
2023/10/25 03:20:48;;;;;;;18.30;15.03;;;12.10;99.90;;;;;;5083541;22;20197;-56
2023/10/25 03:23:14;;;;;;;16.67;14.63;;;12.10;99.90;;;;;;5067410;28;20694;-56
2023/10/25 03:25:39;;;;;;;17.40;15.30;;;12.00;99.90;;;;;;5071199;28;20204;-56
2023/10/25 03:28:05;;;;;;;15.43;13.80;;;12.00;99.90;;;;;;5072201;28;20284;-56
2023/10/25 03:30:30;;;;;;;15.40;13.80;;;11.90;99.90;;;;;;5066362;28;20640;-56
2023/10/25 03:32:56;;;;;;;15.20;13.60;;;11.80;99.90;;;;;;5071271;28;20205;-56
2023/10/25 03:35:21;;;;;;;14.33;12.97;;;11.90;99.90;;;;;;5069205;28;20205;-56
2023/10/25 03:37:47;;;;;;;15.77;14.17;;;12.00;99.90;;;;;;5063712;28;20221;-55
2023/10/25 03:40:13;;;;;;;14.97;12.80;;;12.00;99.90;;;;;;5065757;28;20215;-56
2023/10/25 03:42:39;;;;;;;16.77;12.77;;;12.00;99.90;;;;;;5069350;28;20239;-56
2023/10/25 03:45:06;;;;;;;17.07;14.63;;;12.10;99.90;;;;;;5066645;28;20194;-56
2023/10/25 03:47:37;;;;;;;14.97;13.43;;;12.00;99.90;;;;;;5068031;28;20279;-56
2023/10/25 03:50:03;;;;;;;17.37;13.33;;;12.00;99.90;;;;;;5071627;28;20195;-56
2023/10/25 03:52:29;;;;;;;17.10;13.33;;;12.10;99.90;;;;;;5061716;28;20213;-56
2023/10/25 03:54:54;;;;;;;15.33;13.77;;;12.00;99.90;;;;;;5060557;28;20207;-57
2023/10/25 03:57:20;;;;;;;18.67;14.07;;;11.90;99.90;;;;;;5053192;28;20229;-56
2023/10/25 03:59:45;;;;;;;17.70;14.30;;;11.70;99.90;;;;;;5053281;28;20305;-56
2023/10/25 04:02:11;;;;;;;16.37;13.73;;;11.60;99.90;;;;;;5050796;28;20207;-57
2023/10/25 04:04:36;;;;;;;15.70;13.03;;;11.50;99.90;;;;;;5051369;28;20307;-56
2023/10/25 04:07:02;;;;;;;14.90;13.40;;;11.40;99.90;;;;;;5050611;28;20203;-56
2023/10/25 04:09:28;;;;;;;15.17;13.13;;;11.30;99.90;;;;;;5058992;28;20211;-56
2023/10/25 04:11:53;;;;;;;15.87;14.17;;;11.20;99.90;;;;;;5048388;28;20193;-57
2023/10/25 04:14:19;;;;;;;14.17;12.67;;;11.20;99.90;;;;;;5050440;28;20196;-56
2023/10/25 04:16:44;;;;;;;14.23;12.83;;;11.20;99.90;;;;;;5058647;28;20232;-56
2023/10/25 04:19:10;;;;;;;14.70;13.10;;;11.20;99.90;;;;;;5054332;28;20337;-56
2023/10/25 04:21:35;;;;;;;15.20;13.60;;;11.20;99.90;;;;;;5051682;28;20822;-56
2023/10/25 04:24:01;;;;;;;16.50;13.17;;;11.20;99.90;;;;;;5054939;28;20664;-56
2023/10/25 04:26:28;;;;;;;16.17;14.47;;;11.20;99.90;;;;;;5052791;28;20256;-56
2023/10/25 04:28:54;;;;;;;16.43;14.63;;;11.10;99.90;;;;;;5051160;28;20195;-56
2023/10/25 04:31:20;;;;;;;16.87;13.57;;;11.10;99.90;;;;;;5054030;28;20203;-56
2023/10/25 04:33:47;;;;;;;15.13;13.57;;;11.20;99.90;;;;;;5047029;28;20250;-57
2023/10/25 04:36:13;;;;;;;18.13;15.57;;;11.20;99.90;;;;;;5051500;28;20203;-56
2023/10/25 04:38:38;;;;;;;15.90;14.20;;;11.20;99.90;;;;;;5052649;28;20201;-57
2023/10/25 04:41:04;;;;;;;17.87;14.63;;;11.10;99.90;;;;;;5058923;28;20230;-57
2023/10/25 04:43:30;;;;;;;18.27;16.47;;;11.20;99.90;;;;;;5055534;28;20207;-57
2023/10/25 04:45:55;;;;;;;17.50;15.00;;;11.20;99.90;;;;;;5052160;28;20673;-57
2023/10/25 04:48:21;;;;;;;18.23;16.13;;;11.10;99.90;;;;;;5045856;28;20298;-57
2023/10/25 04:50:46;;;;;;;18.23;16.33;;;11.00;99.90;;;;;;5050482;28;20204;-57
2023/10/25 04:53:12;;;;;;;19.63;16.40;;;10.90;99.90;;;;;;5048663;28;20207;-57
2023/10/25 04:55:43;;;;;;;18.03;16.13;;;10.90;99.90;;;;;;5060621;28;20270;-57
2023/10/25 04:58:09;;;;;;;16.17;14.57;;;11.10;99.90;;;;;;5053790;28;20295;-57
2023/10/25 05:00:34;;;;;;;15.60;13.43;;;11.10;99.90;;;;;;5052833;28;20288;-56
2023/10/25 05:03:00;;;;;;;16.03;14.50;;;11.00;99.90;;;;;;5055913;28;20313;-57
2023/10/25 05:05:26;;;;;;;17.67;14.13;;;11.00;99.90;;;;;;5058360;28;20194;-57
2023/10/25 05:07:52;;;;;;;15.63;13.93;;;11.00;99.90;;;;;;5052193;28;20190;-57
2023/10/25 05:10:18;;;;;;;16.57;14.90;;;10.90;99.90;;;;;;5057256;28;20218;-57
2023/10/25 05:12:45;;;;;;;16.37;14.77;;;11.00;99.90;;;;;;5062514;28;20270;-56
2023/10/25 05:15:16;;;;;;;16.93;15.23;;;11.00;99.90;;;;;;5060663;28;20199;-57
2023/10/25 05:17:43;;;;;;;15.00;13.40;;;11.00;99.90;;;;;;5053838;28;20225;-58
2023/10/25 05:20:09;;;;;;;15.87;14.23;;;11.10;99.90;;;;;;5047931;28;20198;-58
2023/10/25 05:22:37;;;;;;;16.17;14.47;;;11.00;99.90;;;;;;5060024;28;20230;-57
2023/10/25 05:25:08;;;;;;;14.60;13.10;;;11.10;99.90;;;;;;5059866;28;20616;-57
2023/10/25 05:27:35;;;;;;;14.97;13.40;;;11.00;99.90;;;;;;5050629;28;20331;-58
2023/10/25 05:30:04;;;;;;;19.03;13.07;;;11.00;99.90;;;;;;5053807;28;20208;-58
2023/10/25 05:32:32;;;;;;;14.83;13.33;;;11.10;99.90;;;;;;5049088;28;20219;-58
2023/10/25 05:34:59;;;;;;;14.53;13.13;;;11.30;99.90;;;;;;5045479;28;20208;-57
2023/10/25 05:37:25;;;;;;;16.53;13.77;;;11.30;99.90;;;;;;5047290;28;20236;-57
2023/10/25 05:39:51;;;;;;;15.07;13.63;;;11.40;99.90;;;;;;5057093;28;20234;-57
2023/10/25 05:42:20;;;;;;;15.47;13.10;;;11.50;99.90;;;;;;5052321;28;20208;-57
2023/10/25 05:44:47;;;;;;;16.50;14.80;;;11.50;99.90;;;;;;5051055;28;20231;-58
2023/10/25 05:47:17;;;;;;;14.97;13.43;;;11.30;99.90;;;;;;5061644;28;20970;-57
2023/10/25 05:49:42;;;;;;;16.17;13.73;;;11.10;99.90;;;;;;5049608;28;20713;-57
2023/10/25 05:52:10;;;;;;;16.47;14.87;;;10.90;99.90;;;;;;5056179;28;20762;-57
2023/10/25 05:54:36;;;;;;;19.40;14.67;;;10.70;99.90;;;;;;5052702;28;20200;-57
2023/10/25 05:57:03;;;;;;;19.40;16.00;;;10.70;99.90;;;;;;5053991;28;20215;-56
2023/10/25 05:59:29;;;;;;;15.97;14.27;;;10.60;99.90;;;;;;5046795;28;20201;-57
2023/10/25 06:02:06;;;;;;;17.83;16.00;;;10.90;99.90;;;;;;5053536;28;20567;-55
2023/10/25 06:04:35;;;;;;;17.13;15.23;;;11.00;99.90;;;;;;5052006;28;20203;-56
2023/10/25 06:07:01;;;;;;;16.73;14.53;;;11.10;99.90;;;;;;5054063;28;20191;-56
2023/10/25 06:09:26;;;;;;;16.63;14.83;;;11.00;99.90;;;;;;5050669;28;20205;-56
2023/10/25 06:11:53;;;;;;;21.90;16.20;;;11.00;99.90;;;;;;5058698;28;20601;-56
2023/10/25 06:14:18;;;;;;;15.10;13.60;;;11.00;99.90;;;;;;5054755;28;20755;-56
2023/10/25 06:16:44;;;;;;;17.63;15.80;;;10.90;99.90;;;;;;5059286;28;20221;-56
2023/10/25 06:19:10;;;;;;;17.57;15.63;;;11.10;99.90;;;;;;5055598;28;20272;-56
2023/10/25 06:21:35;;;;;;;19.60;17.47;;;11.10;99.90;;;;;;5056880;28;20234;-56
2023/10/25 06:24:01;;;;;;;18.87;16.20;;;10.90;99.90;;;;;;5052010;28;20241;-57
2023/10/25 06:26:27;;;;;;;23.27;17.63;;;11.10;99.90;;;;;;5059303;28;20216;-57
2023/10/25 06:28:52;;;;;;;20.23;17.47;;;11.20;99.90;;;;;;5056557;28;20819;-56
2023/10/25 06:31:18;;;;;;;20.97;16.70;;;11.30;99.90;;;;;;5048533;28;20211;-56
2023/10/25 06:33:43;;;;;;;20.77;16.83;;;11.30;99.90;;;;;;5057589;28;20670;-56
2023/10/25 06:36:10;;;;;;;19.47;17.07;;;11.40;99.90;;;;;;5055983;28;21034;-56
2023/10/25 06:38:36;;;;;;;19.77;17.57;;;11.50;99.90;;;;;;5049205;28;20572;-55
2023/10/25 06:41:02;;;;;;;24.50;18.33;;;11.60;99.90;;;;;;5061617;28;20299;-56
2023/10/25 06:43:29;;;;;;;22.60;17.97;;;11.70;99.90;;;;;;5059055;28;20264;-55
2023/10/25 06:45:55;;;;;;;21.37;16.83;;;11.70;99.90;;;;;;5059167;28;20522;-56
2023/10/25 06:48:21;;;;;;;21.23;17.83;;;11.80;99.90;;;;;;5054861;28;20700;-56
2023/10/25 06:50:47;;;;;;;20.83;17.70;;;11.80;99.90;;;;;;5059292;28;20199;-56
2023/10/25 06:53:13;;;;;;;23.73;18.17;;;11.80;99.90;;;;;;5067667;28;20633;-57
2023/10/25 06:55:39;;;;;;;21.90;18.00;;;11.80;99.90;;;;;;5064808;28;20199;-57
2023/10/25 06:58:04;;;;;;;21.10;18.70;;;11.70;99.90;;;;;;5052278;28;20453;-55
2023/10/25 07:00:30;;;;;;;22.80;17.47;;;11.70;99.90;;;;;;5049404;28;20205;-57
2023/10/25 07:03:02;;;;;;;21.77;17.53;;;11.70;99.90;;;;;;5056667;28;20276;-56
2023/10/25 07:05:29;;;;;;;20.77;17.83;;;11.80;99.90;;;;;;5051172;28;20184;-56
2023/10/25 07:07:55;;;;;;;24.30;17.13;;;11.80;99.90;;;;;;5060862;28;20279;-54
2023/10/25 07:10:21;;;;;;;23.63;18.53;;;11.80;99.90;;;;;;5054858;28;20254;-54
2023/10/25 07:12:47;;;;;;;21.53;18.10;;;11.80;99.90;;;;;;5056205;28;20849;-56
2023/10/25 07:15:13;;;;;;;19.20;16.87;;;11.70;99.90;;;;;;5053272;28;20186;-57
2023/10/25 07:17:39;;;;;;;21.10;18.00;;;11.70;99.90;;;;;;5058726;28;20329;-56
2023/10/25 07:20:09;;;;;;;19.40;17.20;;;11.80;99.90;;;;;;5050145;28;20677;-56
2023/10/25 07:22:35;;;;;;;23.63;16.53;;;11.70;99.90;;;;;;5044540;28;20225;-62
2023/10/25 07:25:01;;;;;;;21.27;17.93;;;11.60;99.90;;;;;;5047007;28;20195;-57
2023/10/25 07:27:26;;;;;;;22.57;18.63;;;11.70;99.90;;;;;;5060804;28;20572;-62
2023/10/25 07:29:52;;;;;;;20.73;16.90;;;11.80;99.90;;;;;;5053575;28;20649;-57
2023/10/25 07:32:17;;;;;;;21.63;18.23;;;11.80;99.90;;;;;;5055544;28;20259;-57
2023/10/25 07:34:43;;;;;;;19.33;17.23;;;11.90;99.90;;;;;;5055957;28;20730;-55
2023/10/25 07:37:09;;;;;;;20.63;16.70;;;12.00;99.90;;;;;;5054110;28;20265;-56
2023/10/25 07:39:35;;;;;;;20.73;16.03;;;12.00;99.90;;;;;;5058826;28;20604;-57
2023/10/25 07:42:01;;;;;;;20.03;17.27;;;11.80;99.90;;;;;;5054401;28;20255;-58
2023/10/25 07:44:27;;;;;;;17.80;15.10;;;11.70;99.90;;;;;;5053628;28;20181;-57
2023/10/25 07:46:53;;;;;;;24.40;18.30;;;11.80;99.90;;;;;;5058793;28;20200;-57
2023/10/25 07:49:18;;;;;;;22.40;16.97;;;11.40;99.90;;;;;;5055146;28;20234;-58
2023/10/25 07:51:44;;;;;;;19.80;16.07;;;11.20;99.90;;;;;;5046827;28;20227;-58
2023/10/25 07:54:09;;;;;;;20.07;16.60;;;11.40;99.90;;;;;;5050766;28;20214;-57
2023/10/25 07:56:35;;;;;;;20.27;17.20;;;11.30;99.90;;;;;;5047843;28;20390;-57
2023/10/25 07:59:01;;;;;;;21.00;16.50;;;11.30;99.90;;;;;;5050650;28;20211;-56
2023/10/25 08:01:27;;;;;;;25.07;18.10;;;11.40;99.90;;;;;;5046565;28;20214;-55
2023/10/25 08:03:53;;;;;;;22.33;15.87;;;11.30;99.90;;;;;;5049212;28;20191;-56
2023/10/25 08:06:18;;;;;;;19.73;15.60;;;11.70;99.90;;;;;;5047986;28;20199;-61
2023/10/25 08:08:44;;;;;;;19.20;15.93;;;11.80;99.90;;;;;;5055396;28;20204;-56
2023/10/25 08:11:09;;;;;;;20.30;16.07;;;11.70;99.90;;;;;;5049662;28;20216;-66
2023/10/25 08:13:38;;;;;;;19.13;15.90;;;11.80;99.90;;;;;;5049257;28;20292;-58
2023/10/25 08:16:04;;;;;;;17.77;15.00;;;12.00;99.90;;;;;;5051945;28;20224;-57
2023/10/25 08:18:31;;;;;;;19.47;15.93;;;12.10;99.90;;;;;;5054614;28;20271;-65
2023/10/25 08:20:58;;;;;;;20.40;14.97;;;12.20;99.90;;;;;;5066815;28;20233;-58
2023/10/25 08:23:24;;;;;;;18.57;15.40;;;12.20;99.90;;;;;;5059646;28;20207;-58
2023/10/25 08:25:51;;;;;;;18.03;15.93;;;12.40;99.90;;;;;;5058813;28;20209;-58
2023/10/25 08:28:17;;;;;;;17.10;13.90;;;12.50;99.90;;;;;;5052611;28;20220;-58
2023/10/25 08:30:42;;;;;;;18.50;15.47;;;12.40;99.90;;;;;;5052031;28;20612;-58
2023/10/25 08:33:08;;;;;;;20.67;15.77;;;12.50;99.90;;;;;;5048539;28;20210;-59
2023/10/25 08:35:33;;;;;;;20.77;14.17;;;12.60;99.90;;;;;;5055241;28;20201;-59
2023/10/25 08:37:59;;;;;;;16.67;14.97;;;12.70;99.90;;;;;;5046691;28;20223;-58
2023/10/25 08:40:25;;;;;;;17.87;14.30;;;12.70;99.90;;;;;;5047935;28;20268;-58
2023/10/25 08:42:50;;;;;;;17.07;15.27;;;12.70;99.90;;;;;;5050370;28;20232;-61
2023/10/25 08:45:16;;;;;;;17.87;13.67;;;12.70;99.90;;;;;;5047936;28;20239;-58
2023/10/25 08:47:43;;;;;;;18.37;14.73;;;12.60;99.90;;;;;;5052547;28;20370;-59
2023/10/25 08:50:10;;;;;;;18.87;14.40;;;12.50;99.90;;;;;;5046677;28;20236;-60
2023/10/25 08:52:39;;;;;;;17.00;13.40;;;12.40;99.90;;;;;;5052252;28;20216;-60
2023/10/25 08:55:11;;;;;;;20.80;14.77;;;12.30;99.90;;;;;;5047100;28;20204;-60
2023/10/25 08:57:40;;;;;;;17.07;14.90;;;12.60;99.90;;;;;;5046928;28;20983;-59
2023/10/25 09:00:10;;;;;;;17.10;14.23;;;12.90;99.90;;;;;;5046519;28;20213;-58
2023/10/25 09:02:37;;;;;;;15.47;13.73;;;13.00;99.90;;;;;;5054865;28;20199;-63
2023/10/25 09:05:03;;;;;;;16.57;14.53;;;12.90;99.90;;;;;;5054236;28;20256;-63
2023/10/25 09:07:30;;;;;;;18.63;16.17;;;12.60;99.90;;;;;;5044872;28;20259;-62
2023/10/25 09:09:56;;;;;;;18.60;14.47;;;12.80;99.90;;;;;;5055796;28;20205;-61
2023/10/25 09:12:23;;;;;;;15.97;14.37;;;12.70;99.90;;;;;;5059766;28;20696;-62
2023/10/25 09:14:49;;;;;;;18.37;14.53;;;12.90;99.90;;;;;;5053612;28;20209;-67
2023/10/25 09:17:15;;;;;;;15.80;12.60;;;12.60;99.90;;;;;;5053903;28;20214;-62
2023/10/25 09:19:48;;;;;;;17.40;14.47;;;12.40;99.90;;;;;;5050255;28;20198;-58
2023/10/25 09:22:21;;;;;;;15.30;12.53;;;12.30;99.90;;;;;;5053043;28;20267;-61
2023/10/25 09:24:50;;;;;;;18.40;14.37;;;12.10;99.90;;;;;;5067840;28;20189;-59
2023/10/25 09:27:19;;;;;;;16.37;13.00;;;12.30;99.90;;;;;;5065471;28;20208;-59
2023/10/25 09:29:45;;;;;;;12.57;11.37;;;12.40;99.90;;;;;;5046591;28;20194;-59
2023/10/25 09:32:10;;;;;;;13.97;12.20;;;12.60;99.90;;;;;;5052691;28;20199;-59
2023/10/25 09:34:36;;;;;;;18.00;11.00;;;12.40;99.90;;;;;;5057553;28;20939;-59
2023/10/25 09:37:04;;;;;;;15.03;11.47;;;12.40;99.90;;;;;;5051762;28;20603;-59
2023/10/25 09:39:32;;;;;;;12.07;10.73;;;12.50;99.90;;;;;;5049828;28;21083;-59
2023/10/25 09:42:02;;;;;;;12.57;10.50;;;12.90;99.90;;;;;;5058750;28;20628;-60
2023/10/25 09:44:34;;;;;;;11.87;10.57;;;13.10;99.90;;;;;;5050280;28;20209;-59
2023/10/25 09:47:03;;;;;;;13.47;10.57;;;13.00;99.90;;;;;;5052722;28;21109;-60
2023/10/25 09:49:32;;;;;;;13.40;11.73;;;13.10;99.90;;;;;;5052203;28;20557;-60
2023/10/25 09:52:06;;;;;;;11.73;10.07;;;13.20;99.90;;;;;;5052037;28;20194;-61
2023/10/25 09:54:56;;;;;;;13.13;11.77;;;13.40;99.90;;;;;;5049734;28;20496;-59
2023/10/25 09:57:28;;;;;;;14.97;11.33;;;13.50;99.90;;;;;;5050662;28;20244;-58
2023/10/25 09:59:56;;;;;;;13.17;10.47;;;13.60;99.90;;;;;;5051725;28;20368;-58
2023/10/25 10:02:36;;;;;;;15.07;12.57;;;13.60;99.90;;;;;;5044254;28;20559;-58
2023/10/25 10:05:27;;;;;;;14.27;11.87;;;13.60;99.90;;;;;;5050378;28;20752;-62
2023/10/25 10:08:10;;;;;;;14.07;11.27;;;13.60;99.90;;;;;;5039705;28;20205;-62
2023/10/25 10:10:53;;;;;;;13.60;12.07;;;13.70;99.90;;;;;;5059597;28;20212;-59
2023/10/25 10:13:22;;;;;;;15.77;11.37;;;13.60;99.90;;;;;;5055224;28;20190;-65
2023/10/25 10:16:04;;;;;;;17.53;11.37;;;13.50;99.90;;;;;;5051500;28;20587;-60
2023/10/25 10:18:34;;;;;;;13.03;10.87;;;13.70;99.90;;;;;;5056702;28;20576;-59
2023/10/25 10:21:02;;;;;;;11.77;10.67;;;13.70;99.90;;;;;;5053749;28;20348;-58
2023/10/25 10:23:40;;;;;;;14.07;11.87;;;13.40;99.90;;;;;;5060282;28;20651;-61
2023/10/25 10:26:07;;;;;;;11.50;10.10;;;13.40;99.90;;;;;;5058787;28;20202;-63
2023/10/25 10:28:43;;;;;;;11.83;9.43;;;13.70;99.90;;;;;;5054983;28;21142;-60
2023/10/25 10:31:13;;;;;;;10.67;9.57;;;13.80;99.90;;;;;;5047396;28;20189;-59
2023/10/25 10:33:47;;;;;;;9.73;8.70;;;13.80;99.90;;;;;;5049710;28;20244;-59
2023/10/25 10:36:27;;;;;;;13.63;9.07;;;13.60;99.90;;;;;;5051394;28;20770;-61
2023/10/25 10:39:12;;;;;;;12.40;8.87;;;13.50;99.90;;;;;;5052428;28;20202;-60
2023/10/25 10:41:39;;;;;;;15.23;10.53;;;13.50;99.90;;;;;;5053778;28;20206;-60
2023/10/25 10:44:05;;;;;;;10.07;8.83;;;13.40;99.90;;;;;;5048166;28;20191;-59
2023/10/25 10:46:31;;;;;;;10.57;9.40;;;13.40;99.90;;;;;;5055540;28;20493;-61
2023/10/25 10:49:01;;;;;;;9.77;8.77;;;13.40;99.90;;;;;;5058421;28;20208;-61
2023/10/25 10:51:27;;;;;;;11.27;8.13;;;13.40;99.90;;;;;;5057581;28;20202;-59
2023/10/25 10:53:53;;;;;;;9.93;7.90;;;13.70;99.90;;;;;;5059765;28;20857;-63
2023/10/25 10:56:19;;;;;;;9.27;7.83;;;13.80;99.90;;;;;;5056480;28;20608;-59
2023/10/25 10:58:45;;;;;;;10.43;8.63;;;13.90;99.90;;;;;;5052858;28;20281;-60
2023/10/25 11:01:11;;;;;;;7.37;6.67;;;13.90;99.90;;;;;;5056260;28;20202;-61
2023/10/25 11:03:37;;;;;;;8.47;7.77;;;13.90;99.90;;;;;;5049683;28;20305;-59
2023/10/25 11:06:08;;;;;;;9.67;7.00;;;14.10;99.90;;;;;;5046873;28;20274;-59
2023/10/25 11:08:33;;;;;;;12.50;7.33;;;14.30;99.90;;;;;;5053752;28;20202;-64
2023/10/25 11:11:00;;;;;;;7.63;6.77;;;14.20;99.90;;;;;;5050094;28;20194;-57
2023/10/25 11:13:25;;;;;;;7.73;6.97;;;14.30;99.90;;;;;;5047397;28;20209;-57
2023/10/25 11:16:01;;;;;;;10.60;7.43;;;14.20;99.90;;;;;;5058225;28;20221;-57
2023/10/25 11:18:27;;;;;;;7.73;6.60;;;14.40;99.90;;;;;;5045049;28;20660;-60
2023/10/25 11:20:52;;;;;;;7.27;6.40;;;14.40;99.90;;;;;;5050380;28;20198;-59
2023/10/25 11:23:18;;;;;;;9.13;5.57;;;14.30;99.90;;;;;;5052031;28;21086;-59
2023/10/25 11:25:45;;;;;;;7.10;6.40;;;14.40;99.90;;;;;;5051211;28;20210;-58
2023/10/25 11:28:15;;;;;;;5.90;4.87;;;14.60;99.90;;;;;;5052248;28;20731;-76
2023/10/25 11:30:41;;;;;;;5.27;4.63;;;14.80;99.90;;;;;;5047377;28;20638;-61
2023/10/25 11:33:09;;;;;;;5.93;5.03;;;14.90;99.90;;;;;;5058341;28;20193;-60
2023/10/25 11:35:38;;;;;;;5.57;5.07;;;14.80;99.90;;;;;;5056466;28;20220;-63
2023/10/25 11:38:05;;;;;;;6.33;4.77;;;14.80;99.90;;;;;;5053002;28;20712;-62
2023/10/25 11:40:35;;;;;;;8.43;5.13;;;14.60;99.90;;;;;;5054201;28;20272;-63
2023/10/25 11:43:01;;;;;;;9.97;5.67;;;14.50;99.90;;;;;;5058653;28;20190;-60
2023/10/25 11:45:26;;;;;;;6.10;5.50;;;14.30;99.90;;;;;;5059591;28;21020;-58
2023/10/25 11:47:54;;;;;;;7.07;5.13;;;14.40;99.90;;;;;;5049065;28;20304;-66
2023/10/25 11:50:20;;;;;;;5.80;5.07;;;14.40;99.90;;;;;;5052690;28;20276;-61
2023/10/25 11:52:45;;;;;;;6.93;4.83;;;14.60;99.90;;;;;;5046477;28;20202;-64
2023/10/25 11:55:14;;;;;;;6.43;4.90;;;15.10;99.90;;;;;;5052051;28;20696;-60
2023/10/25 11:57:42;;;;;;;8.67;4.87;;;15.50;99.90;;;;;;5057159;28;20228;-58
2023/10/25 12:00:08;;;;;;;7.90;4.97;;;16.20;99.90;;;;;;5057827;28;20197;-60
2023/10/25 12:02:34;;;;;;;5.77;4.43;;;16.60;99.90;;;;;;5051687;28;20211;-60
2023/10/25 12:05:03;;;;;;;7.87;4.90;;;16.90;99.90;;;;;;5055576;28;20716;-60
2023/10/25 12:07:30;;;;;;;6.23;4.57;;;16.80;99.90;;;;;;5051385;28;20210;-60
2023/10/25 12:09:56;;;;;;;8.57;4.43;;;15.50;99.90;;;;;;5050716;28;20254;-59
2023/10/25 12:12:22;;;;;;;5.67;4.67;;;15.00;99.90;;;;;;5063065;28;20198;-59
2023/10/25 12:14:48;;;;;;;5.80;4.30;;;15.10;99.90;;;;;;5048483;28;20653;-59
2023/10/25 12:17:13;;;;;;;5.53;3.93;;;15.60;99.90;;;;;;5052403;28;20223;-59
2023/10/25 12:19:39;;;;;;;4.33;3.93;;;15.80;99.90;;;;;;5059681;28;20214;-59
2023/10/25 12:22:10;;;;;;;4.77;4.03;;;16.10;99.90;;;;;;5047642;28;20314;-61
2023/10/25 12:24:37;;;;;;;7.47;4.30;;;16.00;99.90;;;;;;5051833;28;20635;-58
2023/10/25 12:27:05;;;;;;;6.27;3.87;;;15.90;99.90;;;;;;5046713;28;20227;-59
2023/10/25 12:29:31;;;;;;;3.53;3.20;;;15.90;99.90;;;;;;5049374;28;20239;-64
2023/10/25 12:31:56;;;;;;;9.00;3.70;;;16.10;99.90;;;;;;5047324;28;20760;-58